sensor_id;sensor_type;location;lat;lon;timestamp;P1;durP1;ratioP1;P2;durP2;ratioP2
27357;SDS011;14831;50.474;7.616;2023-06-04T00:00:56;1.0;;;0.8;;
27357;SDS011;14831;50.474;7.616;2023-06-04T00:05:56;1.0;;;0.8;;
27357;SDS011;14831;50.474;7.616;2023-06-04T00:10:57;0.9;;;0.7;;
27357;SDS011;14831;50.474;7.616;2023-06-04T00:15:56;0.9;;;0.7;;
27357;SDS011;14831;50.474;7.616;2023-06-04T00:20:56;0.9;;;0.7;;
27357;SDS011;14831;50.474;7.616;2023-06-04T00:25:56;0.9;;;0.7;;
27357;SDS011;14831;50.474;7.616;2023-06-04T00:30:56;0.9;;;0.7;;
27357;SDS011;14831;50.474;7.616;2023-06-04T00:35:56;0.9;;;0.7;;
27357;SDS011;14831;50.474;7.616;2023-06-04T00:40:56;0.7;;;0.7;;
27357;SDS011;14831;50.474;7.616;2023-06-04T00:45:57;0.7;;;0.7;;
27357;SDS011;14831;50.474;7.616;2023-06-04T00:50:57;0.7;;;0.7;;
27357;SDS011;14831;50.474;7.616;2023-06-04T00:55:56;0.7;;;0.7;;
27357;SDS011;14831;50.474;7.616;2023-06-04T01:00:59;0.7;;;0.7;;
27357;SDS011;14831;50.474;7.616;2023-06-04T01:06:01;0.7;;;0.7;;
27357;SDS011;14831;50.474;7.616;2023-06-04T01:10:57;0.7;;;0.7;;
27357;SDS011;14831;50.474;7.616;2023-06-04T01:15:56;0.7;;;0.7;;
27357;SDS011;14831;50.474;7.616;2023-06-04T01:20:59;0.7;;;0.7;;
27357;SDS011;14831;50.474;7.616;2023-06-04T01:25:56;0.7;;;0.7;;
27357;SDS011;14831;50.474;7.616;2023-06-04T01:30:57;0.7;;;0.7;;
27357;SDS011;14831;50.474;7.616;2023-06-04T01:35:56;0.7;;;0.7;;
27357;SDS011;14831;50.474;7.616;2023-06-04T01:40:56;0.8;;;0.8;;
27357;SDS011;14831;50.474;7.616;2023-06-04T01:45:56;0.8;;;0.8;;
27357;SDS011;14831;50.474;7.616;2023-06-04T01:50:56;0.8;;;0.8;;
27357;SDS011;14831;50.474;7.616;2023-06-04T01:55:56;0.8;;;0.8;;
27357;SDS011;14831;50.474;7.616;2023-06-04T02:00:56;0.8;;;0.8;;
27357;SDS011;14831;50.474;7.616;2023-06-04T02:05:56;0.8;;;0.8;;
27357;SDS011;14831;50.474;7.616;2023-06-04T02:10:56;0.6;;;0.6;;
27357;SDS011;14831;50.474;7.616;2023-06-04T02:15:56;0.6;;;0.6;;
27357;SDS011;14831;50.474;7.616;2023-06-04T02:20:56;0.6;;;0.6;;
27357;SDS011;14831;50.474;7.616;2023-06-04T02:25:56;0.6;;;0.6;;
27357;SDS011;14831;50.474;7.616;2023-06-04T02:30:56;0.6;;;0.6;;
27357;SDS011;14831;50.474;7.616;2023-06-04T02:35:56;0.6;;;0.6;;
27357;SDS011;14831;50.474;7.616;2023-06-04T02:40:58;0.6;;;0.6;;
27357;SDS011;14831;50.474;7.616;2023-06-04T02:45:56;0.6;;;0.6;;
27357;SDS011;14831;50.474;7.616;2023-06-04T02:50:56;0.6;;;0.6;;
27357;SDS011;14831;50.474;7.616;2023-06-04T02:55:56;0.6;;;0.6;;
27357;SDS011;14831;50.474;7.616;2023-06-04T03:00:56;0.6;;;0.6;;
27357;SDS011;14831;50.474;7.616;2023-06-04T03:05:56;0.6;;;0.6;;
27357;SDS011;14831;50.474;7.616;2023-06-04T03:10:56;0.6;;;0.6;;
27357;SDS011;14831;50.474;7.616;2023-06-04T03:15:56;0.6;;;0.6;;
27357;SDS011;14831;50.474;7.616;2023-06-04T03:20:56;0.6;;;0.6;;
27357;SDS011;14831;50.474;7.616;2023-06-04T03:25:56;0.6;;;0.6;;
27357;SDS011;14831;50.474;7.616;2023-06-04T03:30:56;0.6;;;0.6;;
27357;SDS011;14831;50.474;7.616;2023-06-04T03:35:56;0.6;;;0.6;;
27357;SDS011;14831;50.474;7.616;2023-06-04T03:40:56;0.5;;;0.5;;
27357;SDS011;14831;50.474;7.616;2023-06-04T03:45:56;0.5;;;0.5;;
27357;SDS011;14831;50.474;7.616;2023-06-04T03:50:56;0.5;;;0.5;;
27357;SDS011;14831;50.474;7.616;2023-06-04T03:55:56;0.5;;;0.5;;
27357;SDS011;14831;50.474;7.616;2023-06-04T04:00:56;0.5;;;0.5;;
27357;SDS011;14831;50.474;7.616;2023-06-04T04:05:57;0.5;;;0.5;;
27357;SDS011;14831;50.474;7.616;2023-06-04T04:10:56;0.6;;;0.6;;
27357;SDS011;14831;50.474;7.616;2023-06-04T04:15:56;0.6;;;0.6;;
27357;SDS011;14831;50.474;7.616;2023-06-04T04:20:56;0.6;;;0.6;;
27357;SDS011;14831;50.474;7.616;2023-06-04T04:25:58;0.6;;;0.6;;
27357;SDS011;14831;50.474;7.616;2023-06-04T04:30:56;0.6;;;0.6;;
27357;SDS011;14831;50.474;7.616;2023-06-04T04:35:56;0.6;;;0.6;;
27357;SDS011;14831;50.474;7.616;2023-06-04T04:40:56;0.7;;;0.7;;
27357;SDS011;14831;50.474;7.616;2023-06-04T04:45:56;0.7;;;0.7;;
27357;SDS011;14831;50.474;7.616;2023-06-04T04:50:56;0.7;;;0.7;;
27357;SDS011;14831;50.474;7.616;2023-06-04T04:55:57;0.7;;;0.7;;
27357;SDS011;14831;50.474;7.616;2023-06-04T05:00:56;0.7;;;0.7;;
27357;SDS011;14831;50.474;7.616;2023-06-04T05:05:56;0.7;;;0.7;;
27357;SDS011;14831;50.474;7.616;2023-06-04T05:10:56;0.5;;;0.5;;
27357;SDS011;14831;50.474;7.616;2023-06-04T05:15:56;0.5;;;0.5;;
27357;SDS011;14831;50.474;7.616;2023-06-04T05:20:57;0.5;;;0.5;;
27357;SDS011;14831;50.474;7.616;2023-06-04T05:25:56;0.5;;;0.5;;
27357;SDS011;14831;50.474;7.616;2023-06-04T05:30:56;0.5;;;0.5;;
27357;SDS011;14831;50.474;7.616;2023-06-04T05:35:56;0.5;;;0.5;;
27357;SDS011;14831;50.474;7.616;2023-06-04T05:40:56;0.6;;;0.6;;
27357;SDS011;14831;50.474;7.616;2023-06-04T05:45:56;0.6;;;0.6;;
27357;SDS011;14831;50.474;7.616;2023-06-04T05:50:56;0.6;;;0.6;;
27357;SDS011;14831;50.474;7.616;2023-06-04T05:55:56;0.6;;;0.6;;
27357;SDS011;14831;50.474;7.616;2023-06-04T06:00:56;0.6;;;0.6;;
27357;SDS011;14831;50.474;7.616;2023-06-04T06:05:56;0.6;;;0.6;;
27357;SDS011;14831;50.474;7.616;2023-06-04T06:10:56;0.7;;;0.7;;
27357;SDS011;14831;50.474;7.616;2023-06-04T06:15:56;0.7;;;0.7;;
27357;SDS011;14831;50.474;7.616;2023-06-04T06:20:56;0.7;;;0.7;;
27357;SDS011;14831;50.474;7.616;2023-06-04T06:25:56;0.7;;;0.7;;
27357;SDS011;14831;50.474;7.616;2023-06-04T06:30:56;0.7;;;0.7;;
27357;SDS011;14831;50.474;7.616;2023-06-04T06:35:56;0.7;;;0.7;;
27357;SDS011;14831;50.474;7.616;2023-06-04T06:40:56;4.2;;;1.3;;
27357;SDS011;14831;50.474;7.616;2023-06-04T06:45:56;4.2;;;1.3;;
27357;SDS011;14831;50.474;7.616;2023-06-04T06:50:58;4.2;;;1.3;;
27357;SDS011;14831;50.474;7.616;2023-06-04T06:55:56;4.2;;;1.3;;
27357;SDS011;14831;50.474;7.616;2023-06-04T07:00:56;4.2;;;1.3;;
27357;SDS011;14831;50.474;7.616;2023-06-04T07:05:56;4.2;;;1.3;;
27357;SDS011;14831;50.474;7.616;2023-06-04T07:10:57;3.4;;;1.6;;
27357;SDS011;14831;50.474;7.616;2023-06-04T07:15:56;3.4;;;1.6;;
27357;SDS011;14831;50.474;7.616;2023-06-04T07:20:56;3.4;;;1.6;;
27357;SDS011;14831;50.474;7.616;2023-06-04T07:25:56;3.4;;;1.6;;
27357;SDS011;14831;50.474;7.616;2023-06-04T07:30:56;3.4;;;1.6;;
27357;SDS011;14831;50.474;7.616;2023-06-04T07:35:56;3.4;;;1.6;;
27357;SDS011;14831;50.474;7.616;2023-06-04T07:40:56;1.8;;;1.6;;
27357;SDS011;14831;50.474;7.616;2023-06-04T07:45:56;1.8;;;1.6;;
27357;SDS011;14831;50.474;7.616;2023-06-04T07:50:57;1.8;;;1.6;;
27357;SDS011;14831;50.474;7.616;2023-06-04T07:55:57;1.8;;;1.6;;
27357;SDS011;14831;50.474;7.616;2023-06-04T08:00:56;1.8;;;1.6;;
27357;SDS011;14831;50.474;7.616;2023-06-04T08:05:56;1.8;;;1.6;;
27357;SDS011;14831;50.474;7.616;2023-06-04T08:10:56;3.5;;;1.4;;
27357;SDS011;14831;50.474;7.616;2023-06-04T08:15:56;3.5;;;1.4;;
27357;SDS011;14831;50.474;7.616;2023-06-04T08:20:56;3.5;;;1.4;;
27357;SDS011;14831;50.474;7.616;2023-06-04T08:25:56;3.5;;;1.4;;
27357;SDS011;14831;50.474;7.616;2023-06-04T08:30:56;3.5;;;1.4;;
27357;SDS011;14831;50.474;7.616;2023-06-04T08:35:56;3.5;;;1.4;;
27357;SDS011;14831;50.474;7.616;2023-06-04T08:41:02;2.4;;;1.6;;
27357;SDS011;14831;50.474;7.616;2023-06-04T08:45:59;2.4;;;1.6;;
27357;SDS011;14831;50.474;7.616;2023-06-04T08:50:57;2.4;;;1.6;;
27357;SDS011;14831;50.474;7.616;2023-06-04T08:55:56;2.4;;;1.6;;
27357;SDS011;14831;50.474;7.616;2023-06-04T09:00:56;2.4;;;1.6;;
27357;SDS011;14831;50.474;7.616;2023-06-04T09:05:57;2.4;;;1.6;;
27357;SDS011;14831;50.474;7.616;2023-06-04T09:10:57;3.2;;;1.6;;
27357;SDS011;14831;50.474;7.616;2023-06-04T09:16:00;3.2;;;1.6;;
27357;SDS011;14831;50.474;7.616;2023-06-04T09:21:01;3.2;;;1.6;;
27357;SDS011;14831;50.474;7.616;2023-06-04T09:25:56;3.2;;;1.6;;
27357;SDS011;14831;50.474;7.616;2023-06-04T09:30:56;3.2;;;1.6;;
27357;SDS011;14831;50.474;7.616;2023-06-04T09:35:57;3.2;;;1.6;;
27357;SDS011;14831;50.474;7.616;2023-06-04T09:40:56;3.6;;;1.7;;
27357;SDS011;14831;50.474;7.616;2023-06-04T09:46:08;3.6;;;1.7;;
27357;SDS011;14831;50.474;7.616;2023-06-04T09:51:06;3.6;;;1.7;;
27357;SDS011;14831;50.474;7.616;2023-06-04T09:55:57;3.6;;;1.7;;
27357;SDS011;14831;50.474;7.616;2023-06-04T10:00:58;3.6;;;1.7;;
27357;SDS011;14831;50.474;7.616;2023-06-04T10:05:57;3.6;;;1.7;;
27357;SDS011;14831;50.474;7.616;2023-06-04T10:10:58;4.1;;;1.8;;
27357;SDS011;14831;50.474;7.616;2023-06-04T10:15:57;4.1;;;1.8;;
27357;SDS011;14831;50.474;7.616;2023-06-04T10:20:57;4.1;;;1.8;;
27357;SDS011;14831;50.474;7.616;2023-06-04T10:25:57;4.1;;;1.8;;
27357;SDS011;14831;50.474;7.616;2023-06-04T10:30:56;4.1;;;1.8;;
27357;SDS011;14831;50.474;7.616;2023-06-04T10:35:56;4.1;;;1.8;;
27357;SDS011;14831;50.474;7.616;2023-06-04T10:40:56;2.6;;;1.4;;
27357;SDS011;14831;50.474;7.616;2023-06-04T10:45:56;2.6;;;1.4;;
27357;SDS011;14831;50.474;7.616;2023-06-04T10:50:56;2.6;;;1.4;;
27357;SDS011;14831;50.474;7.616;2023-06-04T10:55:56;2.6;;;1.4;;
27357;SDS011;14831;50.474;7.616;2023-06-04T11:00:56;2.6;;;1.4;;
27357;SDS011;14831;50.474;7.616;2023-06-04T11:05:56;2.6;;;1.4;;
27357;SDS011;14831;50.474;7.616;2023-06-04T11:10:56;3.2;;;1.6;;
27357;SDS011;14831;50.474;7.616;2023-06-04T11:15:58;3.2;;;1.6;;
27357;SDS011;14831;50.474;7.616;2023-06-04T11:20:59;3.2;;;1.6;;
27357;SDS011;14831;50.474;7.616;2023-06-04T11:25:57;3.2;;;1.6;;
27357;SDS011;14831;50.474;7.616;2023-06-04T11:30:57;3.2;;;1.6;;
27357;SDS011;14831;50.474;7.616;2023-06-04T11:35:56;3.2;;;1.6;;
27357;SDS011;14831;50.474;7.616;2023-06-04T11:40:58;1.9;;;1.4;;
27357;SDS011;14831;50.474;7.616;2023-06-04T11:45:57;1.9;;;1.4;;
27357;SDS011;14831;50.474;7.616;2023-06-04T11:50:56;1.9;;;1.4;;
27357;SDS011;14831;50.474;7.616;2023-06-04T11:55:57;1.9;;;1.4;;
27357;SDS011;14831;50.474;7.616;2023-06-04T12:00:56;1.9;;;1.4;;
27357;SDS011;14831;50.474;7.616;2023-06-04T12:05:56;1.9;;;1.4;;
27357;SDS011;14831;50.474;7.616;2023-06-04T12:10:56;1.6;;;1.2;;
27357;SDS011;14831;50.474;7.616;2023-06-04T12:15:56;1.6;;;1.2;;
27357;SDS011;14831;50.474;7.616;2023-06-04T12:20:56;1.6;;;1.2;;
27357;SDS011;14831;50.474;7.616;2023-06-04T12:25:56;1.6;;;1.2;;
27357;SDS011;14831;50.474;7.616;2023-06-04T12:30:56;1.6;;;1.2;;
27357;SDS011;14831;50.474;7.616;2023-06-04T12:35:56;1.6;;;1.2;;
27357;SDS011;14831;50.474;7.616;2023-06-04T12:40:56;1.3;;;1.2;;
27357;SDS011;14831;50.474;7.616;2023-06-04T12:45:56;1.3;;;1.2;;
27357;SDS011;14831;50.474;7.616;2023-06-04T12:50:56;1.3;;;1.2;;
27357;SDS011;14831;50.474;7.616;2023-06-04T12:55:57;1.3;;;1.2;;
27357;SDS011;14831;50.474;7.616;2023-06-04T13:00:56;1.3;;;1.2;;
27357;SDS011;14831;50.474;7.616;2023-06-04T13:05:56;1.3;;;1.2;;
27357;SDS011;14831;50.474;7.616;2023-06-04T13:10:58;1.1;;;1.0;;
27357;SDS011;14831;50.474;7.616;2023-06-04T13:15:57;1.1;;;1.0;;
27357;SDS011;14831;50.474;7.616;2023-06-04T13:20:56;1.1;;;1.0;;
27357;SDS011;14831;50.474;7.616;2023-06-04T13:25:56;1.1;;;1.0;;
27357;SDS011;14831;50.474;7.616;2023-06-04T13:30:56;1.1;;;1.0;;
27357;SDS011;14831;50.474;7.616;2023-06-04T13:35:56;1.1;;;1.0;;
27357;SDS011;14831;50.474;7.616;2023-06-04T13:40:56;11.0;;;2.0;;
27357;SDS011;14831;50.474;7.616;2023-06-04T13:45:56;11.0;;;2.0;;
27357;SDS011;14831;50.474;7.616;2023-06-04T13:50:56;11.0;;;2.0;;
27357;SDS011;14831;50.474;7.616;2023-06-04T13:55:56;11.0;;;2.0;;
27357;SDS011;14831;50.474;7.616;2023-06-04T14:00:56;11.0;;;2.0;;
27357;SDS011;14831;50.474;7.616;2023-06-04T14:05:56;11.0;;;2.0;;
27357;SDS011;14831;50.474;7.616;2023-06-04T14:10:56;6.7;;;1.7;;
27357;SDS011;14831;50.474;7.616;2023-06-04T14:15:56;6.7;;;1.7;;
27357;SDS011;14831;50.474;7.616;2023-06-04T14:20:56;6.7;;;1.7;;
27357;SDS011;14831;50.474;7.616;2023-06-04T14:25:56;6.7;;;1.7;;
27357;SDS011;14831;50.474;7.616;2023-06-04T14:30:56;6.7;;;1.7;;
27357;SDS011;14831;50.474;7.616;2023-06-04T14:35:56;6.7;;;1.7;;
27357;SDS011;14831;50.474;7.616;2023-06-04T14:40:56;4.3;;;1.9;;
27357;SDS011;14831;50.474;7.616;2023-06-04T14:45:56;4.3;;;1.9;;
27357;SDS011;14831;50.474;7.616;2023-06-04T14:50:56;4.3;;;1.9;;
27357;SDS011;14831;50.474;7.616;2023-06-04T14:55:56;4.3;;;1.9;;
27357;SDS011;14831;50.474;7.616;2023-06-04T15:00:58;4.3;;;1.9;;
27357;SDS011;14831;50.474;7.616;2023-06-04T15:05:56;4.3;;;1.9;;
27357;SDS011;14831;50.474;7.616;2023-06-04T15:10:56;4.4;;;1.9;;
27357;SDS011;14831;50.474;7.616;2023-06-04T15:15:56;4.4;;;1.9;;
27357;SDS011;14831;50.474;7.616;2023-06-04T15:20:56;4.4;;;1.9;;
27357;SDS011;14831;50.474;7.616;2023-06-04T15:25:56;4.4;;;1.9;;
27357;SDS011;14831;50.474;7.616;2023-06-04T15:30:57;4.4;;;1.9;;
27357;SDS011;14831;50.474;7.616;2023-06-04T15:35:57;4.4;;;1.9;;
27357;SDS011;14831;50.474;7.616;2023-06-04T15:40:56;4.1;;;2.4;;
27357;SDS011;14831;50.474;7.616;2023-06-04T15:45:56;4.1;;;2.4;;
27357;SDS011;14831;50.474;7.616;2023-06-04T15:50:56;4.1;;;2.4;;
27357;SDS011;14831;50.474;7.616;2023-06-04T15:55:56;4.1;;;2.4;;
27357;SDS011;14831;50.474;7.616;2023-06-04T16:00:56;4.1;;;2.4;;
27357;SDS011;14831;50.474;7.616;2023-06-04T16:05:56;4.1;;;2.4;;
27357;SDS011;14831;50.474;7.616;2023-06-04T16:10:58;5.8;;;3.2;;
27357;SDS011;14831;50.474;7.616;2023-06-04T16:15:57;5.8;;;3.2;;
27357;SDS011;14831;50.474;7.616;2023-06-04T16:20:56;5.8;;;3.2;;
27357;SDS011;14831;50.474;7.616;2023-06-04T16:25:56;5.8;;;3.2;;
27357;SDS011;14831;50.474;7.616;2023-06-04T16:30:56;5.8;;;3.2;;
27357;SDS011;14831;50.474;7.616;2023-06-04T16:35:56;5.8;;;3.2;;
27357;SDS011;14831;50.474;7.616;2023-06-04T16:40:58;8.1;;;4.1;;
27357;SDS011;14831;50.474;7.616;2023-06-04T16:45:56;8.1;;;4.1;;
27357;SDS011;14831;50.474;7.616;2023-06-04T16:50:56;8.1;;;4.1;;
27357;SDS011;14831;50.474;7.616;2023-06-04T16:55:56;8.1;;;4.1;;
27357;SDS011;14831;50.474;7.616;2023-06-04T17:00:56;8.1;;;4.1;;
27357;SDS011;14831;50.474;7.616;2023-06-04T17:05:56;8.1;;;4.1;;
27357;SDS011;14831;50.474;7.616;2023-06-04T17:10:56;20.5;;;8.8;;
27357;SDS011;14831;50.474;7.616;2023-06-04T17:15:56;20.5;;;8.8;;
27357;SDS011;14831;50.474;7.616;2023-06-04T17:20:56;20.5;;;8.8;;
27357;SDS011;14831;50.474;7.616;2023-06-04T17:25:56;20.5;;;8.8;;
27357;SDS011;14831;50.474;7.616;2023-06-04T17:30:56;20.5;;;8.8;;
27357;SDS011;14831;50.474;7.616;2023-06-04T17:35:56;20.5;;;8.8;;
27357;SDS011;14831;50.474;7.616;2023-06-04T17:40:56;12.8;;;6.5;;
27357;SDS011;14831;50.474;7.616;2023-06-04T17:45:57;12.8;;;6.5;;
27357;SDS011;14831;50.474;7.616;2023-06-04T17:50:56;12.8;;;6.5;;
27357;SDS011;14831;50.474;7.616;2023-06-04T17:55:57;12.8;;;6.5;;
27357;SDS011;14831;50.474;7.616;2023-06-04T18:00:56;12.8;;;6.5;;
27357;SDS011;14831;50.474;7.616;2023-06-04T18:05:56;12.8;;;6.5;;
27357;SDS011;14831;50.474;7.616;2023-06-04T18:10:56;10.8;;;5.9;;
27357;SDS011;14831;50.474;7.616;2023-06-04T18:15:56;10.8;;;5.9;;
27357;SDS011;14831;50.474;7.616;2023-06-04T18:20:56;10.8;;;5.9;;
27357;SDS011;14831;50.474;7.616;2023-06-04T18:25:56;10.8;;;5.9;;
27357;SDS011;14831;50.474;7.616;2023-06-04T18:30:56;10.8;;;5.9;;
27357;SDS011;14831;50.474;7.616;2023-06-04T18:35:56;10.8;;;5.9;;
27357;SDS011;14831;50.474;7.616;2023-06-04T18:40:56;7.5;;;4.9;;
27357;SDS011;14831;50.474;7.616;2023-06-04T18:45:56;7.5;;;4.9;;
27357;SDS011;14831;50.474;7.616;2023-06-04T18:50:56;7.5;;;4.9;;
27357;SDS011;14831;50.474;7.616;2023-06-04T18:55:56;7.5;;;4.9;;
27357;SDS011;14831;50.474;7.616;2023-06-04T19:00:57;7.5;;;4.9;;
27357;SDS011;14831;50.474;7.616;2023-06-04T19:05:56;7.5;;;4.9;;
27357;SDS011;14831;50.474;7.616;2023-06-04T19:10:56;8.7;;;4.6;;
27357;SDS011;14831;50.474;7.616;2023-06-04T19:15:56;8.7;;;4.6;;
27357;SDS011;14831;50.474;7.616;2023-06-04T19:20:56;8.7;;;4.6;;
27357;SDS011;14831;50.474;7.616;2023-06-04T19:25:56;8.7;;;4.6;;
27357;SDS011;14831;50.474;7.616;2023-06-04T19:30:56;8.7;;;4.6;;
27357;SDS011;14831;50.474;7.616;2023-06-04T19:35:56;8.7;;;4.6;;
27357;SDS011;14831;50.474;7.616;2023-06-04T19:40:57;6.1;;;4.1;;
27357;SDS011;14831;50.474;7.616;2023-06-04T19:45:56;6.1;;;4.1;;
27357;SDS011;14831;50.474;7.616;2023-06-04T19:50:56;6.1;;;4.1;;
27357;SDS011;14831;50.474;7.616;2023-06-04T19:55:56;6.1;;;4.1;;
27357;SDS011;14831;50.474;7.616;2023-06-04T20:00:56;6.1;;;4.1;;
27357;SDS011;14831;50.474;7.616;2023-06-04T20:05:57;6.1;;;4.1;;
27357;SDS011;14831;50.474;7.616;2023-06-04T20:10:56;6.2;;;3.9;;
27357;SDS011;14831;50.474;7.616;2023-06-04T20:15:56;6.2;;;3.9;;
27357;SDS011;14831;50.474;7.616;2023-06-04T20:20:56;6.2;;;3.9;;
27357;SDS011;14831;50.474;7.616;2023-06-04T20:25:57;6.2;;;3.9;;
27357;SDS011;14831;50.474;7.616;2023-06-04T20:30:56;6.2;;;3.9;;
27357;SDS011;14831;50.474;7.616;2023-06-04T20:35:56;6.2;;;3.9;;
27357;SDS011;14831;50.474;7.616;2023-06-04T20:40:56;4.1;;;3.1;;
27357;SDS011;14831;50.474;7.616;2023-06-04T20:45:56;4.1;;;3.1;;
27357;SDS011;14831;50.474;7.616;2023-06-04T20:50:56;4.1;;;3.1;;
27357;SDS011;14831;50.474;7.616;2023-06-04T20:55:56;4.1;;;3.1;;
27357;SDS011;14831;50.474;7.616;2023-06-04T21:00:56;4.1;;;3.1;;
27357;SDS011;14831;50.474;7.616;2023-06-04T21:05:57;4.1;;;3.1;;
27357;SDS011;14831;50.474;7.616;2023-06-04T21:10:56;4.3;;;3.1;;
27357;SDS011;14831;50.474;7.616;2023-06-04T21:15:56;4.3;;;3.1;;
27357;SDS011;14831;50.474;7.616;2023-06-04T21:20:56;4.3;;;3.1;;
27357;SDS011;14831;50.474;7.616;2023-06-04T21:25:56;4.3;;;3.1;;
27357;SDS011;14831;50.474;7.616;2023-06-04T21:30:56;4.3;;;3.1;;
27357;SDS011;14831;50.474;7.616;2023-06-04T21:35:56;4.3;;;3.1;;
27357;SDS011;14831;50.474;7.616;2023-06-04T21:40:56;3.0;;;2.7;;
27357;SDS011;14831;50.474;7.616;2023-06-04T21:45:56;3.0;;;2.7;;
27357;SDS011;14831;50.474;7.616;2023-06-04T21:50:56;3.0;;;2.7;;
27357;SDS011;14831;50.474;7.616;2023-06-04T21:55:56;3.0;;;2.7;;
27357;SDS011;14831;50.474;7.616;2023-06-04T22:00:56;3.0;;;2.7;;
27357;SDS011;14831;50.474;7.616;2023-06-04T22:05:57;3.0;;;2.7;;
27357;SDS011;14831;50.474;7.616;2023-06-04T22:10:56;3.1;;;2.3;;
27357;SDS011;14831;50.474;7.616;2023-06-04T22:15:56;3.1;;;2.3;;
27357;SDS011;14831;50.474;7.616;2023-06-04T22:20:56;3.1;;;2.3;;
27357;SDS011;14831;50.474;7.616;2023-06-04T22:25:56;3.1;;;2.3;;
27357;SDS011;14831;50.474;7.616;2023-06-04T22:30:56;3.1;;;2.3;;
27357;SDS011;14831;50.474;7.616;2023-06-04T22:35:56;3.1;;;2.3;;
27357;SDS011;14831;50.474;7.616;2023-06-04T22:40:56;2.6;;;2.3;;
27357;SDS011;14831;50.474;7.616;2023-06-04T22:45:56;2.6;;;2.3;;
27357;SDS011;14831;50.474;7.616;2023-06-04T22:50:56;2.6;;;2.3;;
27357;SDS011;14831;50.474;7.616;2023-06-04T22:55:57;2.6;;;2.3;;
27357;SDS011;14831;50.474;7.616;2023-06-04T23:00:56;2.6;;;2.3;;
27357;SDS011;14831;50.474;7.616;2023-06-04T23:05:57;2.6;;;2.3;;
27357;SDS011;14831;50.474;7.616;2023-06-04T23:10:56;2.1;;;1.9;;
27357;SDS011;14831;50.474;7.616;2023-06-04T23:15:56;2.1;;;1.9;;
27357;SDS011;14831;50.474;7.616;2023-06-04T23:20:56;2.1;;;1.9;;
27357;SDS011;14831;50.474;7.616;2023-06-04T23:25:56;2.1;;;1.9;;
27357;SDS011;14831;50.474;7.616;2023-06-04T23:30:56;2.1;;;1.9;;
27357;SDS011;14831;50.474;7.616;2023-06-04T23:35:56;2.1;;;1.9;;
27357;SDS011;14831;50.474;7.616;2023-06-04T23:40:56;1.9;;;1.6;;
27357;SDS011;14831;50.474;7.616;2023-06-04T23:45:56;1.9;;;1.6;;
27357;SDS011;14831;50.474;7.616;2023-06-04T23:50:56;1.9;;;1.6;;
27357;SDS011;14831;50.474;7.616;2023-06-04T23:55:56;1.9;;;1.6;;
